Sea Jet — WDD2601 — position and weather

sailwx.info

Track history (hours):
 
Tides and Currents Weather Stations Pressure Air Temp Water Temp Dewpoint Dewpoint Depression Visibility Wind Speed Wind Dir Waves Ship Positions

Sea Jet

Owner: Cross Sound Ferry Services, Inc., New London, CT. More information available from US FCC via Universal Licensing System and Coast Guard Vessel Documentation Center.

Last reported at 2017-Dec-15 00:48 UTC. Time now 2017-Dec-15 08:30 UTC.
Position N 41°13' W 072°12'.

Length 33 m; draft 1.8 m.

Type: High speed craft. MMSI: 367117430.

Date/timePositionNaut miles runAvg speedWind from/ knotsBaromVisibWave heightAir tempDewpointWater temp
2017-Dec-15 00:48N 41°13' W 072°12'4 0.4
2017-Dec-14 15:39N 41°15' W 072°08'5 5.6
2017-Dec-14 14:51N 41°12' W 072°12'5 4.4
2017-Dec-14 13:41N 41°15' W 072°07'524.6
2017-Dec-14 13:29N 41°12' W 072°11'0 0.7
2017-Dec-14 12:46N 41°12' W 072°12'  
2017-Dec-11 01:35N 41°15' W 072°07'228.2
2017-Dec-11 01:30N 41°14' W 072°09'4 6.7
2017-Dec-11 00:56N 41°11' W 072°13'6 5.0
2017-Dec-10 23:44N 41°15' W 072°08'2 0.2
2017-Dec-10 15:34N 41°14' W 072°08'326.1
2017-Dec-10 15:27N 41°12' W 072°12'1 1.4
2017-Dec-10 14:53N 41°12' W 072°13'2 0.9
2017-Dec-10 12:45N 41°13' W 072°11'1 0.1
2017-Dec-10 01:31N 41°14' W 072°10'027.6
2017-Dec-10 01:30N 41°14' W 072°10'3 3.7
2017-Dec-10 00:49N 41°12' W 072°12'5 4.9
2017-Dec-09 23:43N 41°15' W 072°07'725.6
2017-Dec-09 23:27N 41°10' W 072°13'2 3.1
2017-Dec-09 22:49N 41°12' W 072°12'3 0.4
2017-Dec-09 15:32N 41°14' W 072°09'3 3.8
2017-Dec-09 14:47N 41°12' W 072°12'5 4.2
2017-Dec-09 13:37N 41°15' W 072°07'325.6
2017-Dec-09 13:30N 41°13' W 072°10'2 3.1
2017-Dec-09 12:49N 41°12' W 072°12'3 0.3
2017-Dec-09 01:30N 41°14' W 072°09'3 5.0
2017-Dec-09 00:54N 41°12' W 072°12'6 4.3
2017-Dec-08 23:36N 41°15' W 072°06'328.3
2017-Dec-08 23:31N 41°13' W 072°08'3 4.5
2017-Dec-08 22:52N 41°12' W 072°12'2 0.2
2017-Dec-08 14:48N 41°13' W 072°11'1 0.9
2017-Dec-08 13:31N 41°14' W 072°10'126.2
2017-Dec-08 13:29N 41°13' W 072°10'2 3.4
2017-Dec-08 12:50N 41°12' W 072°12'5 0.5
2017-Dec-08 01:37N 41°15' W 072°07'327.1
2017-Dec-08 01:30N 41°13' W 072°10'1 0.3
2017-Dec-07 23:32N 41°14' W 072°09'128.5
2017-Dec-07 23:30N 41°13' W 072°09'1 0.1
2017-Dec-07 15:33N 41°14' W 072°10'3 1.5
2017-Dec-07 13:46N 41°15' W 072°07'724.6
2017-Dec-07 13:29N 41°10' W 072°13'2 2.6
2017-Dec-07 12:49N 41°12' W 072°12'  
Track history (hours):
 
Tides and Currents Weather Stations Pressure Air Temp Water Temp Dewpoint Dewpoint Depression Visibility Wind Speed Wind Dir Waves Ship Positions

Sea Jet

Owner: Cross Sound Ferry Services, Inc., New London, CT. More information available from US FCC via Universal Licensing System and Coast Guard Vessel Documentation Center.

Last reported at 2017-Dec-15 00:48 UTC. Time now 2017-Dec-15 08:30 UTC.
Position N 41°13' W 072°12'.

Length 33 m; draft 1.8 m.

Type: High speed craft. MMSI: 367117430.

Date/timePositionNaut miles runAvg speedWind from/ knotsBaromVisibWave heightAir tempDewpointWater temp
2017-Dec-15 00:48N 41°13' W 072°12'4 0.4
2017-Dec-14 15:39N 41°15' W 072°08'5 5.6
2017-Dec-14 14:51N 41°12' W 072°12'5 4.4
2017-Dec-14 13:41N 41°15' W 072°07'524.6
2017-Dec-14 13:29N 41°12' W 072°11'0 0.7
2017-Dec-14 12:46N 41°12' W 072°12'  
2017-Dec-11 01:35N 41°15' W 072°07'228.2
2017-Dec-11 01:30N 41°14' W 072°09'4 6.7
2017-Dec-11 00:56N 41°11' W 072°13'6 5.0
2017-Dec-10 23:44N 41°15' W 072°08'2 0.2
2017-Dec-10 15:34N 41°14' W 072°08'326.1
2017-Dec-10 15:27N 41°12' W 072°12'1 1.4
2017-Dec-10 14:53N 41°12' W 072°13'2 0.9
2017-Dec-10 12:45N 41°13' W 072°11'1 0.1
2017-Dec-10 01:31N 41°14' W 072°10'027.6
2017-Dec-10 01:30N 41°14' W 072°10'3 3.7
2017-Dec-10 00:49N 41°12' W 072°12'5 4.9
2017-Dec-09 23:43N 41°15' W 072°07'725.6
2017-Dec-09 23:27N 41°10' W 072°13'2 3.1
2017-Dec-09 22:49N 41°12' W 072°12'3 0.4
2017-Dec-09 15:32N 41°14' W 072°09'3 3.8
2017-Dec-09 14:47N 41°12' W 072°12'5 4.2
2017-Dec-09 13:37N 41°15' W 072°07'325.6
2017-Dec-09 13:30N 41°13' W 072°10'2 3.1
2017-Dec-09 12:49N 41°12' W 072°12'3 0.3
2017-Dec-09 01:30N 41°14' W 072°09'3 5.0
2017-Dec-09 00:54N 41°12' W 072°12'6 4.3
2017-Dec-08 23:36N 41°15' W 072°06'328.3
2017-Dec-08 23:31N 41°13' W 072°08'3 4.5
2017-Dec-08 22:52N 41°12' W 072°12'2 0.2
2017-Dec-08 14:48N 41°13' W 072°11'1 0.9
2017-Dec-08 13:31N 41°14' W 072°10'126.2
2017-Dec-08 13:29N 41°13' W 072°10'2 3.4
2017-Dec-08 12:50N 41°12' W 072°12'5 0.5
2017-Dec-08 01:37N 41°15' W 072°07'327.1
2017-Dec-08 01:30N 41°13' W 072°10'1 0.3
2017-Dec-07 23:32N 41°14' W 072°09'128.5
2017-Dec-07 23:30N 41°13' W 072°09'1 0.1
2017-Dec-07 15:33N 41°14' W 072°10'3 1.5
2017-Dec-07 13:46N 41°15' W 072°07'724.6
2017-Dec-07 13:29N 41°10' W 072°13'2 2.6
2017-Dec-07 12:49N 41°12' W 072°12'  

Dump ship's entire track history